Time;durP1;ratioP1;P1;durP2;ratioP2;P2;SDS_P1;SDS_P2;PMS_P1;PMS_P2;Temp;Humidity;BMP_temperature;BMP_pressure;BME280_temperature;BME280_humidity;BME280_pressure;Samples;Min_cycle;Max_cycle;Signal;HPM_P1;HPM_P2
2021/03/16 00:00:40;;;;;;;4.80;2.03;;;;;;;;;;6127838;23;20190;-79
2021/03/16 00:03:06;;;;;;;5.83;2.03;;;;;;;;;;6127284;23;20181;-80
2021/03/16 00:05:33;;;;;;;9.03;2.50;;;;;;;;;;6127314;23;20574;-79
2021/03/16 00:07:59;;;;;;;5.97;1.70;;;;;;;;;;6127674;23;20174;-81
2021/03/16 00:10:25;;;;;;;3.77;1.50;;;;;;;;;;6128309;23;20178;-80
2021/03/16 00:12:52;;;;;;;3.77;1.60;;;;;;;;;;6128094;23;20173;-79
2021/03/16 00:15:18;;;;;;;6.27;1.97;;;;;;;;;;6127796;23;20202;-79
2021/03/16 00:17:44;;;;;;;5.77;1.90;;;;;;;;;;6128202;23;20181;-79
2021/03/16 00:20:10;;;;;;;2.60;1.77;;;;;;;;;;6128153;23;20183;-80
2021/03/16 00:22:37;;;;;;;3.87;1.73;;;;;;;;;;6102029;23;20181;-81
2021/03/16 00:25:04;;;;;;;4.57;2.03;;;;;;;;;;6128447;23;20174;-81
2021/03/16 00:27:30;;;;;;;5.97;1.97;;;;;;;;;;6128175;23;20201;-80
2021/03/16 00:29:56;;;;;;;9.60;2.00;;;;;;;;;;6128523;23;20174;-79
2021/03/16 00:32:22;;;;;;;4.43;1.70;;;;;;;;;;6127437;23;20181;-79
2021/03/16 00:34:48;;;;;;;6.27;1.87;;;;;;;;;;6128393;23;20445;-81
2021/03/16 00:37:14;;;;;;;3.03;1.80;;;;;;;;;;6127905;23;20177;-82
2021/03/16 00:39:41;;;;;;;3.33;1.80;;;;;;;;;;6102653;23;20205;-82
2021/03/16 00:42:08;;;;;;;6.67;1.77;;;;;;;;;;6127856;23;20193;-83
2021/03/16 00:44:34;;;;;;;4.87;2.10;;;;;;;;;;6128110;23;20428;-82
2021/03/16 00:47:00;;;;;;;6.30;2.00;;;;;;;;;;6128401;23;20178;-80
2021/03/16 00:49:26;;;;;;;3.90;1.70;;;;;;;;;;6127983;23;20185;-80
2021/03/16 00:51:52;;;;;;;5.50;2.00;;;;;;;;;;6127682;23;20181;-82
2021/03/16 00:54:18;;;;;;;3.93;1.50;;;;;;;;;;6128170;23;20475;-80
2021/03/16 00:56:45;;;;;;;5.60;1.77;;;;;;;;;;6127965;23;20181;-80
2021/03/16 00:59:11;;;;;;;5.87;1.83;;;;;;;;;;6128098;23;20174;-80
2021/03/16 01:01:38;;;;;;;5.63;1.93;;;;;;;;;;6128103;23;20194;-79
2021/03/16 01:04:05;;;;;;;7.17;1.73;;;;;;;;;;6127923;23;20174;-79
2021/03/16 01:06:31;;;;;;;6.30;1.90;;;;;;;;;;6127683;23;20221;-80
2021/03/16 01:08:57;;;;;;;4.80;1.70;;;;;;;;;;6128190;23;20185;-79
2021/03/16 01:11:23;;;;;;;3.93;1.30;;;;;;;;;;6128275;23;20177;-79
2021/03/16 01:13:50;;;;;;;3.03;1.90;;;;;;;;;;6127762;23;20185;-79
2021/03/16 01:16:16;;;;;;;5.13;1.80;;;;;;;;;;6127625;23;20178;-80
2021/03/16 01:18:42;;;;;;;2.90;1.47;;;;;;;;;;6127840;23;20178;-79
2021/03/16 01:21:08;;;;;;;2.47;1.57;;;;;;;;;;6127991;23;20452;-79
2021/03/16 01:23:35;;;;;;;4.70;1.83;;;;;;;;;;6127711;23;20174;-79
2021/03/16 01:26:01;;;;;;;6.93;2.07;;;;;;;;;;6127936;23;20178;-78
2021/03/16 01:28:27;;;;;;;2.90;1.50;;;;;;;;;;6128214;23;20185;-80
2021/03/16 01:30:54;;;;;;;6.03;1.80;;;;;;;;;;6128081;23;20440;-79
2021/03/16 01:33:20;;;;;;;6.00;2.17;;;;;;;;;;6127981;23;20174;-80
2021/03/16 01:35:46;;;;;;;5.73;2.00;;;;;;;;;;6127648;23;20182;-79
2021/03/16 01:38:12;;;;;;;4.97;1.57;;;;;;;;;;6128058;23;20178;-79
2021/03/16 01:40:39;;;;;;;5.47;1.37;;;;;;;;;;6127945;23;20194;-78
2021/03/16 01:43:06;;;;;;;3.63;1.60;;;;;;;;;;6127820;23;20174;-79
2021/03/16 01:45:32;;;;;;;6.17;1.70;;;;;;;;;;6127965;23;20178;-80
2021/03/16 01:47:59;;;;;;;5.37;1.80;;;;;;;;;;6127383;23;20174;-80
2021/03/16 01:50:25;;;;;;;4.07;1.80;;;;;;;;;;6127889;23;20237;-79
2021/03/16 01:52:53;;;;;;;4.20;1.80;;;;;;;;;;6127649;23;20178;-79
2021/03/16 01:55:21;;;;;;;5.67;1.70;;;;;;;;;;6102404;23;20174;-80
2021/03/16 01:57:47;;;;;;;5.40;2.00;;;;;;;;;;6127400;23;20174;-80
2021/03/16 02:00:14;;;;;;;6.37;1.70;;;;;;;;;;6128251;23;20174;-79
2021/03/16 02:02:40;;;;;;;9.50;1.73;;;;;;;;;;6127899;23;20186;-79
2021/03/16 02:05:08;;;;;;;6.87;1.60;;;;;;;;;;6128866;23;20436;-79
2021/03/16 02:07:35;;;;;;;6.73;1.70;;;;;;;;;;6129943;23;20480;-79
2021/03/16 02:10:04;;;;;;;4.83;1.47;;;;;;;;;;6129060;23;20178;-79
2021/03/16 02:12:33;;;;;;;4.13;1.60;;;;;;;;;;6129103;23;20197;-79
2021/03/16 02:15:01;;;;;;;3.37;1.87;;;;;;;;;;6129341;23;20237;-79
2021/03/16 02:17:28;;;;;;;4.80;1.50;;;;;;;;;;6129505;23;20560;-80
2021/03/16 02:20:02;;;;;;;4.50;1.57;;;;;;;;;;6129968;23;20466;-79
2021/03/16 02:22:31;;;;;;;3.47;1.70;;;;;;;;;;6129300;23;20191;-80
2021/03/16 02:25:07;;;;;;;3.27;1.40;;;;;;;;;;6129835;23;20177;-79
2021/03/16 02:27:41;;;;;;;6.00;1.83;;;;;;;;;;6129881;23;20158;-79
2021/03/16 02:30:09;;;;;;;5.90;1.70;;;;;;;;;;6129230;23;20247;-80
2021/03/16 02:32:37;;;;;;;7.10;1.60;;;;;;;;;;6129089;23;20174;-79
2021/03/16 02:35:04;;;;;;;8.83;2.00;;;;;;;;;;6129537;23;20178;-79
2021/03/16 02:37:31;;;;;;;4.60;1.80;;;;;;;;;;6129172;23;20180;-78
2021/03/16 02:39:58;;;;;;;3.23;1.40;;;;;;;;;;6129461;23;20178;-79
2021/03/16 02:42:25;;;;;;;5.20;1.70;;;;;;;;;;6128414;23;20197;-79
2021/03/16 02:44:51;;;;;;;6.70;1.87;;;;;;;;;;6103909;23;20433;-80
2021/03/16 02:47:19;;;;;;;8.20;1.90;;;;;;;;;;6129207;23;20185;-79
2021/03/16 02:49:46;;;;;;;5.83;1.80;;;;;;;;;;6129907;23;20208;-78
2021/03/16 02:52:13;;;;;;;5.50;1.73;;;;;;;;;;6128997;23;20262;-79
2021/03/16 02:54:40;;;;;;;5.27;1.33;;;;;;;;;;6129203;23;20174;-79
2021/03/16 02:57:07;;;;;;;5.57;1.80;;;;;;;;;;6128533;23;20182;-79
2021/03/16 02:59:33;;;;;;;6.67;1.70;;;;;;;;;;6129621;23;20174;-79
2021/03/16 03:02:00;;;;;;;9.47;2.00;;;;;;;;;;6128279;23;20197;-79
2021/03/16 03:04:28;;;;;;;4.43;1.57;;;;;;;;;;6129018;23;20178;-79
2021/03/16 03:06:56;;;;;;;5.87;2.30;;;;;;;;;;6129445;23;20178;-79
2021/03/16 03:09:22;;;;;;;5.73;1.77;;;;;;;;;;6129263;23;20181;-79
2021/03/16 03:11:48;;;;;;;5.30;1.53;;;;;;;;;;6128982;23;20173;-78
2021/03/16 03:14:15;;;;;;;7.23;1.80;;;;;;;;;;6128917;23;20213;-79
2021/03/16 03:16:41;;;;;;;7.83;1.70;;;;;;;;;;6128908;23;20178;-78
2021/03/16 03:19:07;;;;;;;6.67;1.80;;;;;;;;;;6129152;23;20174;-79
2021/03/16 03:21:36;;;;;;;7.77;1.60;;;;;;;;;;6129204;23;20186;-79
2021/03/16 03:24:04;;;;;;;7.87;2.03;;;;;;;;;;6128662;23;20470;-79
2021/03/16 03:26:32;;;;;;;6.20;1.63;;;;;;;;;;6128898;23;20174;-79
2021/03/16 03:28:58;;;;;;;8.10;2.43;;;;;;;;;;6129040;23;20178;-78
2021/03/16 03:31:25;;;;;;;6.73;2.13;;;;;;;;;;6128220;23;20182;-78
2021/03/16 03:33:53;;;;;;;3.77;1.63;;;;;;;;;;6128878;23;20174;-79
2021/03/16 03:36:19;;;;;;;6.90;1.70;;;;;;;;;;6128768;23;20417;-79
2021/03/16 03:38:46;;;;;;;4.93;1.70;;;;;;;;;;6128849;23;20178;-79
2021/03/16 03:41:12;;;;;;;4.23;1.60;;;;;;;;;;6128882;23;20197;-79
2021/03/16 03:43:38;;;;;;;8.90;1.57;;;;;;;;;;6128611;23;20417;-79
2021/03/16 03:46:05;;;;;;;8.60;2.07;;;;;;;;;;6128812;23;20178;-79
2021/03/16 03:48:32;;;;;;;5.63;1.70;;;;;;;;;;6128235;23;20181;-78
2021/03/16 03:50:59;;;;;;;6.17;1.77;;;;;;;;;;6128328;23;20501;-78
2021/03/16 03:53:27;;;;;;;7.53;1.90;;;;;;;;;;6128497;23;20178;-79
2021/03/16 03:55:54;;;;;;;5.53;1.90;;;;;;;;;;6128448;23;20564;-79
2021/03/16 03:58:20;;;;;;;4.53;1.63;;;;;;;;;;6128920;23;20174;-79
2021/03/16 04:00:46;;;;;;;7.73;1.47;;;;;;;;;;6128797;23;20178;-79
2021/03/16 04:03:13;;;;;;;4.67;1.70;;;;;;;;;;6128320;23;20195;-79
2021/03/16 04:05:39;;;;;;;5.87;1.37;;;;;;;;;;6128458;23;20181;-79
2021/03/16 04:08:06;;;;;;;8.67;1.83;;;;;;;;;;6128182;23;20187;-79
2021/03/16 04:10:36;;;;;;;10.33;1.63;;;;;;;;;;6128514;23;20174;-79
2021/03/16 04:13:03;;;;;;;9.63;1.77;;;;;;;;;;6128319;23;20558;-79
2021/03/16 04:15:30;;;;;;;5.13;1.93;;;;;;;;;;6127705;23;20202;-80
2021/03/16 04:17:56;;;;;;;4.50;1.40;;;;;;;;;;6127495;23;20193;-79
2021/03/16 04:20:22;;;;;;;7.83;2.10;;;;;;;;;;6128893;23;20181;-78
2021/03/16 04:22:49;;;;;;;4.43;1.90;;;;;;;;;;6127693;23;20212;-79
2021/03/16 04:25:16;;;;;;;5.63;1.77;;;;;;;;;;6128592;23;20448;-79
2021/03/16 04:27:42;;;;;;;6.43;1.60;;;;;;;;;;6127660;23;20544;-79
2021/03/16 04:30:09;;;;;;;5.83;2.37;;;;;;;;;;6128525;23;20432;-79
2021/03/16 04:32:36;;;;;;;5.63;2.17;;;;;;;;;;6127762;23;20170;-79
2021/03/16 04:35:03;;;;;;;6.03;2.20;;;;;;;;;;6128362;23;20174;-78
2021/03/16 04:37:29;;;;;;;7.10;2.53;;;;;;;;;;6128207;23;20627;-79
2021/03/16 04:39:55;;;;;;;7.40;2.27;;;;;;;;;;6128248;23;20181;-79
2021/03/16 04:42:21;;;;;;;5.00;2.00;;;;;;;;;;6128256;23;20197;-79
2021/03/16 04:44:47;;;;;;;7.67;2.03;;;;;;;;;;6128408;23;20186;-79
2021/03/16 04:47:14;;;;;;;4.63;1.83;;;;;;;;;;6128378;23;20205;-78
2021/03/16 04:49:40;;;;;;;10.80;2.40;;;;;;;;;;6128409;23;20555;-80
2021/03/16 04:52:06;;;;;;;4.27;2.40;;;;;;;;;;6128070;23;20177;-79
2021/03/16 04:54:32;;;;;;;8.03;2.20;;;;;;;;;;6128388;23;20201;-80
2021/03/16 04:56:59;;;;;;;7.83;2.03;;;;;;;;;;6128022;23;20185;-79
2021/03/16 04:59:25;;;;;;;6.10;1.80;;;;;;;;;;6128327;23;20174;-79
2021/03/16 05:01:51;;;;;;;8.13;1.97;;;;;;;;;;6128068;23;20275;-79
2021/03/16 05:04:18;;;;;;;5.93;2.07;;;;;;;;;;6128114;23;20182;-79
2021/03/16 05:06:44;;;;;;;6.90;2.00;;;;;;;;;;6126664;23;20990;-78
2021/03/16 05:09:12;;;;;;;7.03;2.77;;;;;;;;;;6128275;23;20600;-81
2021/03/16 05:11:38;;;;;;;10.13;2.10;;;;;;;;;;6127920;23;20173;-80
2021/03/16 05:14:04;;;;;;;3.73;1.93;;;;;;;;;;6128109;23;20202;-80
2021/03/16 05:16:31;;;;;;;5.43;1.97;;;;;;;;;;6128214;23;20178;-80
2021/03/16 05:18:57;;;;;;;4.80;1.80;;;;;;;;;;6128019;23;20178;-80
2021/03/16 05:21:24;;;;;;;7.33;2.20;;;;;;;;;;6127541;23;20174;-79
2021/03/16 05:23:50;;;;;;;6.27;2.00;;;;;;;;;;6128287;23;20547;-79
2021/03/16 05:26:16;;;;;;;7.17;1.93;;;;;;;;;;6128059;23;20185;-80
2021/03/16 05:28:42;;;;;;;9.73;2.30;;;;;;;;;;6128647;23;20180;-80
2021/03/16 05:31:08;;;;;;;5.30;1.80;;;;;;;;;;6128014;23;20630;-79
2021/03/16 05:33:35;;;;;;;6.77;2.00;;;;;;;;;;6128122;23;20556;-80
2021/03/16 05:36:01;;;;;;;5.83;1.93;;;;;;;;;;6127457;23;20204;-80
2021/03/16 05:38:28;;;;;;;4.43;1.87;;;;;;;;;;6128444;23;20189;-80
2021/03/16 05:40:54;;;;;;;8.10;2.17;;;;;;;;;;6129648;23;20548;-79
2021/03/16 05:43:20;;;;;;;6.23;1.90;;;;;;;;;;6129755;23;20190;-81
2021/03/16 05:45:46;;;;;;;7.57;2.03;;;;;;;;;;6104046;23;20189;-80
2021/03/16 05:48:13;;;;;;;9.53;2.03;;;;;;;;;;6129898;23;20181;-79
2021/03/16 05:50:39;;;;;;;5.90;1.97;;;;;;;;;;6129718;23;20182;-80
2021/03/16 05:53:05;;;;;;;5.97;2.40;;;;;;;;;;6129390;23;20173;-80
2021/03/16 05:55:33;;;;;;;10.00;2.40;;;;;;;;;;6129487;23;20174;-80
2021/03/16 05:58:00;;;;;;;7.13;2.00;;;;;;;;;;6129733;23;20205;-80
2021/03/16 06:00:26;;;;;;;7.53;2.03;;;;;;;;;;6129395;23;20194;-79
2021/03/16 06:02:52;;;;;;;6.47;1.83;;;;;;;;;;6129790;23;20190;-80
2021/03/16 06:05:18;;;;;;;5.30;2.17;;;;;;;;;;6129265;23;20436;-80
2021/03/16 06:07:48;;;;;;;6.30;2.00;;;;;;;;;;6129817;23;20560;-79
2021/03/16 06:10:16;;;;;;;8.33;3.00;;;;;;;;;;6129542;23;20174;-79
2021/03/16 06:12:43;;;;;;;8.77;2.60;;;;;;;;;;6129624;23;20574;-80
2021/03/16 06:15:10;;;;;;;4.63;2.40;;;;;;;;;;6128047;23;20209;-79
2021/03/16 06:17:41;;;;;;;13.30;3.03;;;;;;;;;;6128713;23;20436;-79
2021/03/16 06:20:08;;;;;;;9.03;2.83;;;;;;;;;;6102668;23;20227;-77
2021/03/16 06:22:34;;;;;;;8.07;2.63;;;;;;;;;;6128393;23;20186;-77
2021/03/16 06:25:00;;;;;;;8.07;2.17;;;;;;;;;;6128587;23;20174;-80
2021/03/16 06:27:27;;;;;;;6.60;2.27;;;;;;;;;;6128570;23;20440;-78
2021/03/16 06:29:54;;;;;;;6.97;2.43;;;;;;;;;;6127958;23;20489;-78
2021/03/16 06:32:20;;;;;;;8.03;2.50;;;;;;;;;;6128711;23;20170;-78
2021/03/16 06:34:47;;;;;;;3.60;1.80;;;;;;;;;;6128692;23;20174;-78
2021/03/16 06:37:17;;;;;;;8.73;2.30;;;;;;;;;;6128781;23;20205;-78
2021/03/16 06:39:44;;;;;;;7.27;2.30;;;;;;;;;;6128613;23;20444;-79
2021/03/16 06:42:19;;;;;;;5.40;1.83;;;;;;;;;;6128681;23;20197;-79
2021/03/16 06:44:46;;;;;;;5.80;2.20;;;;;;;;;;6129230;23;20440;-77
2021/03/16 06:47:14;;;;;;;3.40;2.33;;;;;;;;;;6129747;23;20185;-77
2021/03/16 06:49:41;;;;;;;7.03;2.40;;;;;;;;;;6129101;23;20174;-78
2021/03/16 06:52:10;;;;;;;4.37;2.27;;;;;;;;;;6128578;23;20413;-79
2021/03/16 06:54:36;;;;;;;6.37;2.37;;;;;;;;;;6129312;23;20181;-78
2021/03/16 06:57:02;;;;;;;5.63;2.40;;;;;;;;;;6128813;23;20204;-78
2021/03/16 06:59:29;;;;;;;11.50;3.10;;;;;;;;;;6129156;23;20181;-77
2021/03/16 07:01:55;;;;;;;3.57;2.60;;;;;;;;;;6128657;23;20190;-78
2021/03/16 07:04:23;;;;;;;18.73;4.73;;;;;;;;;;6128862;23;20777;-79
2021/03/16 07:06:50;;;;;;;7.83;3.17;;;;;;;;;;6129300;23;20249;-78
2021/03/16 07:09:17;;;;;;;5.83;2.90;;;;;;;;;;6129200;23;20174;-82
2021/03/16 07:11:46;;;;;;;8.20;3.10;;;;;;;;;;6129301;23;20484;-79
2021/03/16 07:14:13;;;;;;;14.67;3.53;;;;;;;;;;6128770;23;20463;-79
2021/03/16 07:16:40;;;;;;;6.87;3.50;;;;;;;;;;6129193;23;20181;-79
2021/03/16 07:19:06;;;;;;;5.97;3.10;;;;;;;;;;6129053;23;20186;-78
2021/03/16 07:21:38;;;;;;;8.00;3.27;;;;;;;;;;6128678;23;20547;-79
2021/03/16 07:24:08;;;;;;;8.57;3.53;;;;;;;;;;6103297;23;20174;-79
2021/03/16 07:26:35;;;;;;;8.03;3.57;;;;;;;;;;6128470;23;20178;-78
2021/03/16 07:29:03;;;;;;;13.10;3.97;;;;;;;;;;6129066;23;20570;-79
2021/03/16 07:31:31;;;;;;;7.73;3.50;;;;;;;;;;6129057;23;20177;-79
2021/03/16 07:34:00;;;;;;;5.67;3.00;;;;;;;;;;6128727;23;20170;-78
2021/03/16 07:36:26;;;;;;;8.57;3.10;;;;;;;;;;6128272;23;20179;-79
2021/03/16 07:38:54;;;;;;;10.77;3.40;;;;;;;;;;6128784;23;20552;-81
2021/03/16 07:41:20;;;;;;;7.63;3.57;;;;;;;;;;6128372;23;20174;-81
2021/03/16 07:43:46;;;;;;;7.43;2.87;;;;;;;;;;6128674;23;20194;-79
2021/03/16 07:46:13;;;;;;;9.67;3.63;;;;;;;;;;6128326;23;20432;-79
2021/03/16 07:48:45;;;;;;;6.87;3.50;;;;;;;;;;6103284;23;20225;-79
2021/03/16 07:51:12;;;;;;;8.07;3.53;;;;;;;;;;6128189;23;20559;-79
2021/03/16 07:53:39;;;;;;;11.50;3.70;;;;;;;;;;6128841;23;20559;-79
2021/03/16 07:56:06;;;;;;;7.07;3.73;;;;;;;;;;6128254;23;20441;-81
2021/03/16 07:58:42;;;;;;;8.47;3.40;;;;;;;;;;6128720;23;20480;-79
2021/03/16 08:01:08;;;;;;;8.43;3.23;;;;;;;;;;6127893;23;20440;-78
2021/03/16 08:03:34;;;;;;;9.00;2.93;;;;;;;;;;6128366;23;20193;-81
2021/03/16 08:06:01;;;;;;;12.03;3.03;;;;;;;;;;6128206;23;20181;-79
2021/03/16 08:08:37;;;;;;;7.40;3.33;;;;;;;;;;6128859;23;20193;-79
2021/03/16 08:11:08;;;;;;;7.00;3.00;;;;;;;;;;6102946;23;20412;-79
2021/03/16 08:13:34;;;;;;;6.73;3.10;;;;;;;;;;6128803;23;20170;-81
2021/03/16 08:16:09;;;;;;;7.43;3.23;;;;;;;;;;6070212;23;20183;-79
2021/03/16 08:18:35;;;;;;;12.83;3.43;;;;;;;;;;6070958;23;20268;-82
2021/03/16 08:21:11;;;;;;;7.97;2.87;;;;;;;;;;6070268;23;20597;-79
2021/03/16 08:23:37;;;;;;;8.60;2.97;;;;;;;;;;6070838;23;20200;-80
2021/03/16 08:26:04;;;;;;;6.93;2.80;;;;;;;;;;6070751;23;20183;-79
2021/03/16 08:28:31;;;;;;;14.30;4.23;;;;;;;;;;6070996;23;20434;-78
2021/03/16 08:30:58;;;;;;;7.80;3.90;;;;;;;;;;6070139;23;20187;-80
2021/03/16 08:33:26;;;;;;;5.17;3.57;;;;;;;;;;6070344;23;20172;-79
2021/03/16 08:35:53;;;;;;;8.30;3.43;;;;;;;;;;6070509;23;20179;-80
2021/03/16 08:38:19;;;;;;;9.70;3.70;;;;;;;;;;6070941;23;20580;-83
2021/03/16 08:40:46;;;;;;;6.23;3.47;;;;;;;;;;6069232;23;20181;-81
2021/03/16 08:43:12;;;;;;;9.87;3.83;;;;;;;;;;6076820;23;20191;-82
2021/03/16 08:45:39;;;;;;;7.87;3.33;;;;;;;;;;6070612;23;20502;-81
2021/03/16 08:48:05;;;;;;;12.37;3.70;;;;;;;;;;6070850;23;20180;-82
2021/03/16 08:50:32;;;;;;;8.00;3.80;;;;;;;;;;6069850;23;20434;-80
2021/03/16 08:52:58;;;;;;;7.33;3.20;;;;;;;;;;6069774;23;20179;-79
2021/03/16 08:55:25;;;;;;;6.83;3.97;;;;;;;;;;6070815;23;20182;-80
2021/03/16 08:57:51;;;;;;;8.30;3.47;;;;;;;;;;6070452;23;20576;-79
2021/03/16 09:00:18;;;;;;;6.43;2.40;;;;;;;;;;6070904;23;20176;-79
2021/03/16 09:02:45;;;;;;;7.83;2.53;;;;;;;;;;6070265;23;20191;-79
2021/03/16 09:05:18;;;;;;;8.17;2.60;;;;;;;;;;6070526;23;20176;-80
2021/03/16 09:07:44;;;;;;;7.73;3.00;;;;;;;;;;6069042;23;20549;-80
2021/03/16 09:10:12;;;;;;;6.07;2.47;;;;;;;;;;6070396;23;20186;-81
2021/03/16 09:12:41;;;;;;;4.40;2.70;;;;;;;;;;6069581;23;20175;-83
2021/03/16 09:15:08;;;;;;;6.50;2.50;;;;;;;;;;6109797;23;20213;-80
2021/03/16 09:17:34;;;;;;;8.40;2.43;;;;;;;;;;6131218;23;20173;-80
2021/03/16 09:20:07;;;;;;;6.80;2.30;;;;;;;;;;6131351;23;20173;-79
2021/03/16 09:22:33;;;;;;;5.30;1.80;;;;;;;;;;6131099;23;20186;-79
2021/03/16 09:25:00;;;;;;;6.83;2.17;;;;;;;;;;6131197;23;20177;-82
2021/03/16 09:27:26;;;;;;;5.47;2.00;;;;;;;;;;6131054;23;20174;-79
2021/03/16 09:29:52;;;;;;;7.30;2.00;;;;;;;;;;6131249;23;20173;-79
2021/03/16 09:32:19;;;;;;;4.87;1.83;;;;;;;;;;6131038;23;20180;-79
2021/03/16 09:34:46;;;;;;;5.23;2.50;;;;;;;;;;6131352;23;20410;-79
2021/03/16 09:37:14;;;;;;;5.93;2.00;;;;;;;;;;6130158;23;20535;-79
2021/03/16 09:39:50;;;;;;;3.83;1.63;;;;;;;;;;6131679;23;20173;-79
2021/03/16 09:42:16;;;;;;;8.47;2.00;;;;;;;;;;6104729;23;20220;-79
2021/03/16 09:44:44;;;;;;;3.23;1.60;;;;;;;;;;6130936;23;20417;-79
2021/03/16 09:47:11;;;;;;;13.20;2.53;;;;;;;;;;6129861;23;20574;-78
2021/03/16 09:49:38;;;;;;;7.30;2.00;;;;;;;;;;6131189;23;20174;-78
2021/03/16 09:52:05;;;;;;;7.37;2.10;;;;;;;;;;6130724;23;20174;-79
2021/03/16 09:54:35;;;;;;;6.10;2.30;;;;;;;;;;6131523;23;20174;-79
2021/03/16 09:57:04;;;;;;;4.57;1.50;;;;;;;;;;6131119;23;20181;-82
2021/03/16 09:59:33;;;;;;;5.17;1.60;;;;;;;;;;6131362;23;20185;-78
2021/03/16 10:02:00;;;;;;;5.33;1.60;;;;;;;;;;6130641;23;20288;-79
2021/03/16 10:04:26;;;;;;;4.40;1.40;;;;;;;;;;6130931;23;20190;-80
2021/03/16 10:06:56;;;;;;;3.60;1.70;;;;;;;;;;6130952;23;20447;-78
2021/03/16 10:09:22;;;;;;;5.40;1.70;;;;;;;;;;6131280;23;20178;-78
2021/03/16 10:11:50;;;;;;;9.30;2.00;;;;;;;;;;6130424;23;20184;-79
2021/03/16 10:14:24;;;;;;;3.50;1.83;;;;;;;;;;6130924;23;20599;-78
2021/03/16 10:16:53;;;;;;;3.77;1.57;;;;;;;;;;6131132;23;20185;-79
2021/03/16 10:19:20;;;;;;;5.40;1.60;;;;;;;;;;6130970;23;20181;-78
2021/03/16 10:21:46;;;;;;;3.53;1.60;;;;;;;;;;6105228;23;20173;-79
2021/03/16 10:24:12;;;;;;;5.87;1.93;;;;;;;;;;6130914;23;20190;-79
2021/03/16 10:26:38;;;;;;;3.30;1.40;;;;;;;;;;6128202;23;20182;-78
2021/03/16 10:29:12;;;;;;;5.87;1.63;;;;;;;;;;6129435;23;20183;-79
2021/03/16 10:31:38;;;;;;;7.27;1.80;;;;;;;;;;6129130;23;20189;-78
2021/03/16 10:34:04;;;;;;;5.83;1.90;;;;;;;;;;6128775;23;20170;-79
2021/03/16 10:36:35;;;;;;;6.93;1.93;;;;;;;;;;6128133;23;20174;-79
2021/03/16 10:39:01;;;;;;;3.90;1.70;;;;;;;;;;6128947;23;20174;-79
2021/03/16 10:41:27;;;;;;;6.07;1.50;;;;;;;;;;6129023;23;20178;-78
2021/03/16 10:43:53;;;;;;;2.67;1.67;;;;;;;;;;6129268;23;20190;-80
2021/03/16 10:46:20;;;;;;;4.17;1.40;;;;;;;;;;6129216;23;20193;-80
2021/03/16 10:48:47;;;;;;;4.90;1.80;;;;;;;;;;6129477;23;20174;-79
2021/03/16 10:51:13;;;;;;;7.40;2.30;;;;;;;;;;6129320;23;20570;-79
2021/03/16 10:53:39;;;;;;;6.83;2.50;;;;;;;;;;6129174;23;20174;-80
2021/03/16 10:56:06;;;;;;;8.50;1.80;;;;;;;;;;6129199;23;20185;-80
2021/03/16 10:58:32;;;;;;;4.87;1.80;;;;;;;;;;6129229;23;20182;-81
2021/03/16 11:00:59;;;;;;;4.37;1.80;;;;;;;;;;6128922;23;20178;-81
2021/03/16 11:03:26;;;;;;;5.73;2.07;;;;;;;;;;6102794;23;20441;-81
2021/03/16 11:05:52;;;;;;;6.70;2.53;;;;;;;;;;6129008;23;20552;-80
2021/03/16 11:08:18;;;;;;;5.40;2.03;;;;;;;;;;6127897;23;20185;-79
2021/03/16 11:10:44;;;;;;;5.10;2.03;;;;;;;;;;6103322;23;20251;-79
2021/03/16 11:13:10;;;;;;;3.33;1.77;;;;;;;;;;6127996;23;20178;-81
2021/03/16 11:15:38;;;;;;;6.50;1.90;;;;;;;;;;6129174;23;20225;-82
2021/03/16 11:18:05;;;;;;;6.10;2.20;;;;;;;;;;6128744;23;20174;-80
2021/03/16 11:20:32;;;;;;;3.33;1.60;;;;;;;;;;6129357;23;20178;-80
2021/03/16 11:22:58;;;;;;;3.83;2.10;;;;;;;;;;6127327;23;20598;-83
2021/03/16 11:25:24;;;;;;;2.80;1.70;;;;;;;;;;6132158;23;20181;-84
2021/03/16 11:27:51;;;;;;;3.90;1.40;;;;;;;;;;6131567;23;20174;-85
2021/03/16 11:30:17;;;;;;;6.47;1.50;;;;;;;;;;6129214;23;20201;-81
2021/03/16 11:32:43;;;;;;;2.50;1.17;;;;;;;;;;6128820;23;20220;-80
2021/03/16 11:35:10;;;;;;;2.03;1.30;;;;;;;;;;6129371;23;20181;-80
2021/03/16 11:37:37;;;;;;;5.10;1.83;;;;;;;;;;6128606;23;20185;-81
2021/03/16 11:40:04;;;;;;;2.83;1.80;;;;;;;;;;6128353;23;20178;-81
2021/03/16 11:42:30;;;;;;;5.53;1.83;;;;;;;;;;6128463;23;20191;-79
2021/03/16 11:44:56;;;;;;;4.20;1.40;;;;;;;;;;6128738;23;20181;-79
2021/03/16 11:47:22;;;;;;;3.60;1.27;;;;;;;;;;6128701;23;20464;-82
2021/03/16 11:49:48;;;;;;;4.53;1.60;;;;;;;;;;6129971;23;20186;-84
2021/03/16 11:52:15;;;;;;;3.37;1.80;;;;;;;;;;6128523;23;20197;-81
2021/03/16 11:54:41;;;;;;;4.63;1.90;;;;;;;;;;6128539;23;20170;-80
2021/03/16 11:57:08;;;;;;;2.97;1.30;;;;;;;;;;6128702;23;20667;-82
2021/03/16 11:59:34;;;;;;;1.73;1.10;;;;;;;;;;6128547;23;20181;-80
2021/03/16 12:02:00;;;;;;;3.20;1.90;;;;;;;;;;6128624;23;20173;-81
2021/03/16 12:04:26;;;;;;;2.80;1.60;;;;;;;;;;6128472;23;20196;-85
2021/03/16 12:06:53;;;;;;;4.47;1.40;;;;;;;;;;6128320;23;20181;-84
2021/03/16 12:09:19;;;;;;;1.97;1.30;;;;;;;;;;6102539;23;20178;-85
2021/03/16 12:11:46;;;;;;;5.13;1.73;;;;;;;;;;6127912;23;20209;-84
2021/03/16 12:14:12;;;;;;;2.37;1.60;;;;;;;;;;6127926;23;20249;-83
2021/03/16 12:16:38;;;;;;;1.40;1.00;;;;;;;;;;6128728;23;20174;-82
2021/03/16 12:19:04;;;;;;;2.37;1.40;;;;;;;;;;6128458;23;20174;-89
2021/03/16 12:21:30;;;;;;;2.03;1.30;;;;;;;;;;6131193;23;20177;-83
2021/03/16 12:23:56;;;;;;;3.47;1.53;;;;;;;;;;6101955;23;20625;-85
2021/03/16 12:26:23;;;;;;;3.40;1.40;;;;;;;;;;6128121;23;20184;-86
2021/03/16 12:28:50;;;;;;;3.03;1.03;;;;;;;;;;6128114;23;20182;-84
2021/03/16 12:31:16;;;;;;;2.33;1.07;;;;;;;;;;6128808;23;20570;-87
2021/03/16 12:33:42;;;;;;;2.77;1.23;;;;;;;;;;6128392;23;20544;-86
2021/03/16 12:36:09;;;;;;;3.70;1.30;;;;;;;;;;6128981;23;20178;-82
2021/03/16 12:38:35;;;;;;;3.07;1.33;;;;;;;;;;6128754;23;20248;-81
2021/03/16 12:41:02;;;;;;;3.63;1.27;;;;;;;;;;6127472;23;20178;-85
2021/03/16 12:43:28;;;;;;;6.40;1.17;;;;;;;;;;6127833;23;20197;-82
2021/03/16 12:45:55;;;;;;;2.60;1.30;;;;;;;;;;6127526;23;20181;-84
2021/03/16 12:48:21;;;;;;;1.60;1.30;;;;;;;;;;6127324;23;20185;-81
2021/03/16 12:50:47;;;;;;;2.53;1.30;;;;;;;;;;6127565;23;20241;-81
2021/03/16 12:53:13;;;;;;;4.73;1.37;;;;;;;;;;6127539;23;20551;-80
2021/03/16 12:55:40;;;;;;;3.27;1.30;;;;;;;;;;6127346;23;20174;-80
2021/03/16 12:58:06;;;;;;;3.97;1.30;;;;;;;;;;6127107;23;20206;-81
2021/03/16 13:00:32;;;;;;;2.03;1.00;;;;;;;;;;6127434;23;20552;-83
2021/03/16 13:02:59;;;;;;;5.13;1.80;;;;;;;;;;6127116;23;20181;-85
2021/03/16 13:05:25;;;;;;;4.53;1.40;;;;;;;;;;6127066;23;20182;-83
2021/03/16 13:07:51;;;;;;;3.33;1.10;;;;;;;;;;6126853;23;20182;-82
2021/03/16 13:10:18;;;;;;;3.73;1.20;;;;;;;;;;6127446;23;20174;-82
2021/03/16 13:12:44;;;;;;;3.20;1.40;;;;;;;;;;6127298;23;20177;-82
2021/03/16 13:15:10;;;;;;;2.73;1.30;;;;;;;;;;6126627;23;20198;-79
2021/03/16 13:17:37;;;;;;;1.13;0.93;;;;;;;;;;6127641;23;20178;-82
2021/03/16 13:20:05;;;;;;;1.80;1.43;;;;;;;;;;6126839;23;20174;-81
2021/03/16 13:22:31;;;;;;;2.10;1.03;;;;;;;;;;6127326;23;20180;-83
2021/03/16 13:24:57;;;;;;;2.77;1.23;;;;;;;;;;6127578;23;20197;-84
2021/03/16 13:27:23;;;;;;;1.37;1.23;;;;;;;;;;6127800;23;20174;-86
2021/03/16 13:29:50;;;;;;;2.70;1.37;;;;;;;;;;6127671;23;20201;-84
2021/03/16 13:32:16;;;;;;;2.90;1.40;;;;;;;;;;6127797;23;20178;-83
2021/03/16 13:34:42;;;;;;;3.87;1.20;;;;;;;;;;6126795;23;20174;-86
2021/03/16 13:37:09;;;;;;;5.60;1.20;;;;;;;;;;6127940;23;20173;-89
2021/03/16 13:39:35;;;;;;;3.60;1.10;;;;;;;;;;6127146;23;20174;-88
2021/03/16 13:42:01;;;;;;;2.83;1.33;;;;;;;;;;6127893;23;20181;-83
2021/03/16 13:44:27;;;;;;;4.27;1.43;;;;;;;;;;6126965;23;20189;-82
2021/03/16 13:46:55;;;;;;;2.83;1.70;;;;;;;;;;6128254;23;20174;-84
2021/03/16 13:49:21;;;;;;;3.40;1.50;;;;;;;;;;6126800;23;20173;-82
2021/03/16 13:51:47;;;;;;;3.37;1.60;;;;;;;;;;6127848;23;20178;-82
2021/03/16 13:54:14;;;;;;;3.10;1.17;;;;;;;;;;6127149;23;20197;-82
2021/03/16 13:56:41;;;;;;;3.13;1.30;;;;;;;;;;6127429;23;20452;-80
2021/03/16 13:59:07;;;;;;;2.70;1.10;;;;;;;;;;6127462;23;20181;-82
2021/03/16 14:01:33;;;;;;;3.13;1.23;;;;;;;;;;6128790;23;20201;-82
2021/03/16 14:04:00;;;;;;;4.00;1.20;;;;;;;;;;6128921;23;20460;-80
2021/03/16 14:06:27;;;;;;;3.13;1.20;;;;;;;;;;6128882;23;20209;-83
2021/03/16 14:08:53;;;;;;;2.87;1.40;;;;;;;;;;6128129;23;20436;-81
2021/03/16 14:11:20;;;;;;;3.03;1.30;;;;;;;;;;6128120;23;20178;-81
2021/03/16 14:13:46;;;;;;;6.10;1.33;;;;;;;;;;6128171;23;20182;-80
2021/03/16 14:16:12;;;;;;;3.80;1.40;;;;;;;;;;6128805;23;20174;-79
2021/03/16 14:18:39;;;;;;;3.13;1.40;;;;;;;;;;6128785;23;20181;-80
2021/03/16 14:21:05;;;;;;;6.90;1.63;;;;;;;;;;6127979;23;20178;-81
2021/03/16 14:23:31;;;;;;;5.20;1.80;;;;;;;;;;6102842;23;20607;-79
2021/03/16 14:25:57;;;;;;;3.67;1.87;;;;;;;;;;6128521;23;20590;-80
2021/03/16 14:28:24;;;;;;;3.23;1.40;;;;;;;;;;6129024;23;20181;-79
2021/03/16 14:30:50;;;;;;;3.60;1.10;;;;;;;;;;6127987;23;20177;-80
2021/03/16 14:33:16;;;;;;;1.90;1.23;;;;;;;;;;6128681;23;20173;-81
2021/03/16 14:35:43;;;;;;;1.33;1.00;;;;;;;;;;6127878;23;20174;-79
2021/03/16 14:38:09;;;;;;;2.97;1.00;;;;;;;;;;6128666;23;20189;-79
2021/03/16 14:40:35;;;;;;;1.03;0.83;;;;;;;;;;6127950;23;20185;-79